Time;durP1;ratioP1;P1;durP2;ratioP2;P2;SDS_P1;SDS_P2;PMS_P1;PMS_P2;Temp;Humidity;BMP_temperature;BMP_pressure;BME280_temperature;BME280_humidity;BME280_pressure;Samples;Min_cycle;Max_cycle;Signal;HPM_P1;HPM_P2
2022/12/03 00:00:25;;;;;;;22.45;8.38;;;;;;;-9.55;67.09;102248.53;4987327;28;20039;-50
2022/12/03 00:02:51;;;;;;;26.33;10.40;;;;;;;-9.58;67.21;102249.91;4988348;28;20076;-49
2022/12/03 00:05:17;;;;;;;25.83;10.23;;;;;;;-9.59;66.37;102244.00;5003685;28;20430;-51
2022/12/03 00:07:43;;;;;;;28.77;10.50;;;;;;;-9.65;67.15;102248.50;4988798;28;20078;-49
2022/12/03 00:10:09;;;;;;;33.75;10.10;;;;;;;-9.63;67.31;102244.47;4985013;28;20435;-54
2022/12/03 00:12:35;;;;;;;28.17;8.95;;;;;;;-9.70;67.00;102242.19;4969631;28;20035;-50
2022/12/03 00:15:01;;;;;;;29.65;10.18;;;;;;;-9.72;66.68;102250.34;4988926;28;20046;-48
2022/12/03 00:17:27;;;;;;;28.35;9.98;;;;;;;-9.73;67.03;102249.44;4972842;28;20045;-49
2022/12/03 00:19:53;;;;;;;32.30;10.48;;;;;;;-9.94;66.63;102213.22;4989757;28;20121;-48
2022/12/03 00:22:19;;;;;;;32.42;10.30;;;;;;;-9.75;66.93;102252.59;4987340;28;20578;-48
2022/12/03 00:24:45;;;;;;;23.13;8.85;;;;;;;-9.75;67.44;102256.00;4990352;28;20038;-48
2022/12/03 00:27:11;;;;;;;32.80;11.98;;;;;;;-9.74;66.85;102254.38;4973265;28;20045;-49
2022/12/03 00:29:37;;;;;;;27.67;9.95;;;;;;;-10.10;67.15;102202.56;4973780;28;20034;-48
2022/12/03 00:32:03;;;;;;;26.00;9.48;;;;;;;-9.75;66.57;102256.00;4990571;28;20096;-51
2022/12/03 00:34:29;;;;;;;23.08;8.93;;;;;;;-9.77;67.50;102257.50;4973600;28;20038;-49
2022/12/03 00:36:55;;;;;;;23.02;9.15;;;;;;;-9.80;66.40;102258.88;4969125;28;20062;-48
2022/12/03 00:39:20;;;;;;;31.90;10.18;;;;;;;-9.82;67.26;102246.13;4986145;28;20035;-49
2022/12/03 00:41:46;;;;;;;30.38;9.55;;;;;;;-9.82;66.81;102255.31;4978994;28;20514;-48
2022/12/03 00:44:12;;;;;;;20.65;8.80;;;;;;;-9.80;66.64;102266.41;4973179;28;20125;-47
2022/12/03 00:46:38;;;;;;;27.58;10.10;;;;;;;-10.00;67.35;102240.38;4988378;28;20113;-52
2022/12/03 00:49:05;;;;;;;20.63;8.40;;;;;;;-9.86;67.04;102260.09;4922546;28;20050;-50
2022/12/03 00:51:31;;;;;;;26.35;9.60;;;;;;;-9.85;66.97;102260.97;4973902;28;20042;-46
2022/12/03 00:53:56;;;;;;;23.58;8.45;;;;;;;-9.86;66.76;102260.09;4988689;28;20502;-50
2022/12/03 00:56:22;;;;;;;22.98;9.10;;;;;;;-9.86;66.89;102265.13;4988384;28;20042;-53
2022/12/03 00:58:49;;;;;;;28.00;9.70;;;;;;;-9.86;67.22;102267.63;4986968;28;21037;-49
2022/12/03 01:01:14;;;;;;;28.55;10.32;;;;;;;-9.91;66.32;102263.84;4971501;28;20050;-51
2022/12/03 01:03:40;;;;;;;27.77;9.88;;;;;;;-9.94;67.14;102260.16;4989984;28;20042;-49
2022/12/03 01:06:07;;;;;;;28.13;9.30;;;;;;;-10.16;67.20;102231.38;5005576;28;20097;-50
2022/12/03 01:08:32;;;;;;;25.02;9.57;;;;;;;-9.92;67.07;102261.19;4988629;28;20422;-50
2022/12/03 01:10:58;;;;;;;25.20;10.15;;;;;;;-9.94;66.99;102258.50;4992550;28;20057;-52
2022/12/03 01:13:24;;;;;;;24.00;9.15;;;;;;;-9.98;66.52;102266.56;4978247;28;20114;-49
2022/12/03 01:15:50;;;;;;;28.35;9.45;;;;;;;-10.02;67.17;102263.63;4972658;28;20039;-52
2022/12/03 01:18:16;;;;;;;29.30;10.55;;;;;;;-10.03;66.42;102271.91;4971924;28;20066;-52
2022/12/03 01:20:42;;;;;;;23.77;8.55;;;;;;;-10.03;66.85;102266.88;4977108;28;20054;-50
2022/12/03 01:23:08;;;;;;;22.63;8.73;;;;;;;-10.12;67.22;102271.09;5002141;28;20052;-54
2022/12/03 01:25:33;;;;;;;28.17;9.57;;;;;;;-10.11;66.97;102272.88;4990706;28;20047;-50
2022/12/03 01:27:59;;;;;;;23.33;8.93;;;;;;;-10.27;66.81;102249.66;4990694;28;20042;-50
2022/12/03 01:30:25;;;;;;;26.90;9.65;;;;;;;-10.16;66.87;102285.09;4990450;28;20087;-49
2022/12/03 01:32:51;;;;;;;22.60;8.93;;;;;;;-10.14;66.68;102268.44;4988816;28;20100;-48
2022/12/03 01:35:17;;;;;;;30.90;9.50;;;;;;;-10.23;66.80;102265.16;5000175;28;20046;-49
2022/12/03 01:37:43;;;;;;;21.55;8.95;;;;;;;-10.22;67.07;102268.56;4953556;28;20178;-49
2022/12/03 01:40:11;;;;;;;22.05;9.73;;;;;;;-10.25;67.60;102275.81;4975390;28;20562;-48
2022/12/03 01:42:40;;;;;;;23.20;9.40;;;;;;;-10.30;67.09;102281.31;4977742;28;20136;-48
2022/12/03 01:45:09;;;;;;;27.05;9.38;;;;;;;-10.34;66.99;102279.28;4956083;28;20085;-48
2022/12/03 01:47:35;;;;;;;;;;;;;;;-10.34;67.62;102278.41;4990272;28;20050;-47
2022/12/03 01:50:06;;;;;;;16.75;6.93;;;;;;;-10.43;66.98;102270.91;4971466;28;19917;-46
2022/12/03 01:52:35;;;;;;;23.15;9.07;;;;;;;-10.46;66.79;102278.16;5004720;28;20271;-47
2022/12/03 01:55:04;;;;;;;21.60;9.18;;;;;;;-10.67;67.35;102237.63;4958769;28;20505;-49
2022/12/03 01:57:39;;;;;;;23.08;8.73;;;;;;;-10.50;67.48;102266.06;4970701;28;20035;-51
2022/12/03 02:00:06;;;;;;;17.73;8.20;;;;;;;-10.42;67.91;102272.69;4973256;28;20053;-52
2022/12/03 02:02:34;;;;;;;25.35;8.43;;;;;;;-10.43;67.20;102272.53;4988291;28;20069;-50
2022/12/03 02:05:00;;;;;;;21.67;7.72;;;;;;;-10.44;67.09;102280.81;4987869;28;20045;-49
2022/12/03 02:07:29;;;;;;;21.88;8.00;;;;;;;-10.49;66.90;102280.41;4988142;28;20467;-54
2022/12/03 02:09:57;;;;;;;23.38;8.20;;;;;;;-10.51;67.46;102276.88;4985419;28;20132;-52
2022/12/03 02:12:43;;;;;;;23.85;8.35;;;;;;;-10.52;67.83;102290.16;4993399;28;20042;-57
2022/12/03 02:15:10;;;;;;;22.50;8.73;;;;;;;-10.54;67.11;102291.69;4975324;28;20140;-49
2022/12/03 02:17:36;;;;;;;25.73;9.07;;;;;;;-10.51;67.81;102286.91;4991144;28;20566;-51
2022/12/03 02:20:04;;;;;;;19.63;7.57;;;;;;;-10.51;67.57;102286.03;4993450;28;20050;-52
2022/12/03 02:23:02;;;;;;;27.17;8.25;;;;;;;-10.54;67.29;102285.75;5008499;28;20049;-49
2022/12/03 02:25:30;;;;;;;17.92;8.32;;;;;;;-10.58;68.28;102293.78;4991813;28;20042;-50
2022/12/03 02:27:57;;;;;;;22.02;8.40;;;;;;;-10.57;68.13;102288.00;4975206;28;20093;-51
2022/12/03 02:30:24;;;;;;;20.83;8.25;;;;;;;-10.60;68.20;102277.66;4975938;28;20514;-52
2022/12/03 02:32:50;;;;;;;24.90;9.38;;;;;;;-10.51;68.14;102291.06;4986409;28;20034;-49
2022/12/03 02:35:28;;;;;;;19.63;8.45;;;;;;;-10.52;67.11;102290.16;4986642;28;20081;-51
2022/12/03 02:37:57;;;;;;;22.98;7.75;;;;;;;-10.49;67.16;102287.06;4991124;28;20533;-49
2022/12/03 02:40:26;;;;;;;21.65;8.95;;;;;;;-10.51;67.90;102286.03;4985913;28;20042;-47
2022/12/03 02:42:55;;;;;;;28.92;8.63;;;;;;;-10.54;67.72;102290.78;4976219;28;20046;-53
2022/12/03 02:45:49;;;;;;;25.65;9.45;;;;;;;-10.52;67.66;102292.69;4991619;28;20104;-50
2022/12/03 02:48:36;;;;;;;17.15;6.00;;;;;;;-10.52;68.48;102291.81;4988993;28;20050;-47
2022/12/03 02:51:08;;;;;;;19.40;8.40;;;;;;;-10.50;68.16;102297.84;4991859;28;20068;-52
2022/12/03 02:53:44;;;;;;;24.52;8.90;;;;;;;-10.68;67.98;102266.94;4988594;28;20058;-48
2022/12/03 02:56:13;;;;;;;31.42;9.63;;;;;;;-10.51;68.09;102298.59;4987380;28;20511;-52
2022/12/03 02:58:40;;;;;;;20.80;7.57;;;;;;;-10.49;67.83;102294.59;4986694;28;20097;-50
2022/12/03 03:01:06;;;;;;;22.65;9.43;;;;;;;-10.50;68.25;102297.84;4991523;28;20050;-50
2022/12/03 03:03:32;;;;;;;21.77;8.68;;;;;;;-10.70;67.85;102259.97;4984073;28;20097;-53
2022/12/03 03:06:00;;;;;;;20.67;7.90;;;;;;;-10.49;68.25;102302.16;4984897;28;20066;-51
2022/12/03 03:08:26;;;;;;;19.17;7.90;;;;;;;-10.47;68.00;102299.03;4992360;28;20767;-50
2022/12/03 03:10:52;;;;;;;24.60;8.90;;;;;;;-10.47;67.67;102306.59;5006062;28;20044;-52
2022/12/03 03:13:18;;;;;;;24.05;8.20;;;;;;;-10.49;67.72;102305.56;4985603;28;20538;-48
2022/12/03 03:15:44;;;;;;;24.17;8.40;;;;;;;-10.57;67.76;102281.31;4980324;28;20054;-50
2022/12/03 03:18:11;;;;;;;28.75;9.35;;;;;;;-10.47;67.40;102301.56;4975422;28;20046;-52
2022/12/03 03:20:37;;;;;;;27.35;9.07;;;;;;;-10.49;68.15;102294.59;4991211;28;20525;-48
2022/12/03 03:23:17;;;;;;;18.33;7.25;;;;;;;-10.52;67.60;102305.25;4990321;28;20546;-46
2022/12/03 03:25:46;;;;;;;21.00;8.93;;;;;;;-10.53;68.38;102315.19;4979258;28;20066;-53
2022/12/03 03:28:13;;;;;;;20.25;8.70;;;;;;;-10.53;68.19;102316.06;4971745;28;20446;-49
2022/12/03 03:30:41;;;;;;;27.45;8.77;;;;;;;-10.50;67.92;102316.34;4987713;28;20062;-49
2022/12/03 03:33:07;;;;;;;29.55;9.65;;;;;;;-10.47;67.87;102304.06;4971746;28;20567;-52
2022/12/03 03:35:34;;;;;;;27.63;9.05;;;;;;;-10.44;67.62;102321.06;4988657;28;20042;-49
2022/12/03 03:37:59;;;;;;;28.13;8.48;;;;;;;-10.48;68.26;102313.97;4983908;28;20483;-51
2022/12/03 03:40:26;;;;;;;27.45;9.40;;;;;;;-10.49;68.07;102314.72;4976782;28;20066;-49
2022/12/03 03:42:54;;;;;;;21.42;8.68;;;;;;;-10.84;67.68;102254.59;4955438;28;20137;-50
2022/12/03 03:45:20;;;;;;;28.40;10.35;;;;;;;-10.50;67.72;102323.88;4987949;28;20046;-47
2022/12/03 03:47:46;;;;;;;23.63;8.48;;;;;;;-10.46;68.51;102322.53;4990925;28;20048;-50
2022/12/03 03:50:13;;;;;;;15.48;7.57;;;;;;;-10.41;68.27;102329.75;4992045;28;20426;-53
2022/12/03 03:52:39;;;;;;;19.02;7.68;;;;;;;-10.40;67.53;102321.47;4991760;28;20062;-50
2022/12/03 03:55:06;;;;;;;21.40;8.98;;;;;;;-10.32;67.36;102327.22;4983030;28;20046;-46
2022/12/03 03:57:32;;;;;;;31.88;9.57;;;;;;;-10.32;68.06;102327.22;4963153;28;20435;-48
2022/12/03 03:59:58;;;;;;;17.75;8.13;;;;;;;-10.38;67.34;102321.63;4955265;28;20090;-50
2022/12/03 04:02:26;;;;;;;26.13;7.95;;;;;;;-10.37;68.16;102318.34;4955311;28;20095;-48
2022/12/03 04:04:52;;;;;;;29.70;9.93;;;;;;;-10.35;67.11;102324.38;4979264;28;20046;-50
2022/12/03 04:07:18;;;;;;;22.85;8.40;;;;;;;-10.37;67.46;102324.28;4992600;28;20042;-52
2022/12/03 04:09:44;;;;;;;25.70;7.28;;;;;;;-10.35;67.95;102329.41;4971089;28;20035;-49
2022/12/03 04:14:56;;;;;;;18.33;8.02;;;;;;;-10.33;67.37;102328.81;4973702;28;20105;-49
2022/12/03 04:17:22;;;;;;;24.45;9.10;;;;;;;-10.30;67.83;102326.59;5003799;28;20034;-48
2022/12/03 04:19:48;;;;;;;25.65;9.05;;;;;;;-10.28;67.11;102324.22;4991476;28;20045;-47
2022/12/03 04:30:44;;;;;;;25.70;8.55;;;;;;;-10.13;68.09;102333.09;4953384;28;20050;-46
2022/12/03 04:35:54;;;;;;;22.70;8.40;;;;;;;-10.11;67.43;102331.63;4981391;28;20529;-48
2022/12/03 04:38:20;;;;;;;18.35;7.97;;;;;;;-10.24;67.10;102312.78;4989836;28;20125;-46
2022/12/03 04:41:02;;;;;;;22.90;9.13;;;;;;;-10.06;66.87;102342.09;4989096;28;20054;-53
2022/12/03 04:43:30;;;;;;;32.38;9.52;;;;;;;-10.02;67.58;102346.66;4975983;28;20137;-50
2022/12/03 04:45:56;;;;;;;24.38;8.82;;;;;;;-10.21;67.02;102318.13;4978500;28;20046;-52
2022/12/03 04:48:22;;;;;;;29.25;10.10;;;;;;;-10.09;66.84;102352.75;4972996;28;20046;-54
2022/12/03 04:50:48;;;;;;;26.05;9.60;;;;;;;-10.05;67.68;102356.44;4975086;28;20109;-49
2022/12/03 04:53:14;;;;;;;21.13;8.75;;;;;;;-9.99;66.93;102362.00;4970087;28;20050;-49
2022/12/03 04:55:40;;;;;;;26.38;9.38;;;;;;;-9.95;66.93;102362.44;4976788;28;20502;-50
2022/12/03 04:58:06;;;;;;;29.60;11.05;;;;;;;-9.99;67.36;102360.38;4988887;28;20050;-51
2022/12/03 05:00:32;;;;;;;25.38;10.48;;;;;;;-9.93;67.29;102365.97;4970826;28;20042;-53
2022/12/03 05:02:57;;;;;;;25.65;9.45;;;;;;;-9.94;66.52;102374.25;4985905;28;20507;-50
2022/12/03 05:05:23;;;;;;;27.55;9.52;;;;;;;-9.90;66.71;102375.44;4990174;28;20051;-47
2022/12/03 05:07:49;;;;;;;26.45;8.73;;;;;;;-10.27;66.96;102340.19;4982818;28;20064;-48
2022/12/03 05:10:15;;;;;;;24.48;9.20;;;;;;;-10.09;66.53;102382.94;4972501;28;20053;-49
2022/12/03 05:12:41;;;;;;;29.73;10.95;;;;;;;-10.20;66.67;102376.06;4974835;28;20043;-52
2022/12/03 05:15:07;;;;;;;28.83;9.88;;;;;;;-10.25;66.70;102383.94;4978779;28;20042;-51
2022/12/03 05:17:33;;;;;;;27.20;9.30;;;;;;;-10.29;66.78;102385.31;4970712;28;20065;-51
2022/12/03 05:22:43;;;;;;;28.15;9.45;;;;;;;-10.41;67.19;102397.63;4985715;28;20570;-50
2022/12/03 05:25:09;;;;;;;23.05;8.18;;;;;;;-10.43;67.76;102394.09;4986257;28;20134;-51
2022/12/03 05:27:35;;;;;;;22.95;8.68;;;;;;;-10.58;67.80;102352.47;4982427;28;20038;-48
2022/12/03 05:30:01;;;;;;;28.30;9.82;;;;;;;-10.30;67.52;102391.97;4972055;28;20137;-52
2022/12/03 05:32:27;;;;;;;27.05;8.85;;;;;;;-10.19;67.52;102402.13;4970618;28;20510;-52
2022/12/03 05:34:52;;;;;;;19.55;8.20;;;;;;;-10.11;66.76;102404.56;4970990;28;20050;-48
2022/12/03 05:37:18;;;;;;;26.02;9.02;;;;;;;-10.05;67.16;102410.16;4988223;28;20046;-48
2022/12/03 05:39:44;;;;;;;26.02;8.45;;;;;;;-9.96;67.06;102416.03;5005495;28;20450;-48
2022/12/03 05:44:55;;;;;;;24.75;7.43;;;;;;;-9.89;67.08;102425.03;4976292;28;20058;-51
2022/12/03 05:47:20;;;;;;;29.40;8.18;;;;;;;-9.92;66.65;102413.03;4987496;28;20073;-51
2022/12/03 05:49:46;;;;;;;24.67;9.20;;;;;;;-9.97;66.99;102415.88;4988926;28;20051;-52
2022/12/03 05:52:12;;;;;;;25.38;8.43;;;;;;;-10.03;66.27;102415.31;4967763;28;20140;-49
2022/12/03 05:54:38;;;;;;;20.30;8.15;;;;;;;-10.23;66.60;102400.06;4984311;28;20140;-48
2022/12/03 05:57:03;;;;;;;20.08;7.97;;;;;;;-10.21;66.42;102417.09;4945262;28;20047;-52
2022/12/03 05:59:30;;;;;;;27.63;9.02;;;;;;;-10.34;66.64;102391.53;4970110;28;20047;-51
2022/12/03 06:01:55;;;;;;;22.85;9.07;;;;;;;-10.23;66.67;102410.13;4974698;28;20121;-50
2022/12/03 06:04:21;;;;;;;24.17;8.30;;;;;;;-10.16;66.38;102415.88;4988897;28;20093;-51
2022/12/03 06:06:47;;;;;;;19.70;8.40;;;;;;;-10.21;66.99;102416.19;4987926;28;20128;-50
2022/12/03 06:09:13;;;;;;;21.35;7.95;;;;;;;-10.44;66.07;102387.31;4989718;28;20046;-54
2022/12/03 06:11:39;;;;;;;18.90;8.23;;;;;;;-10.61;66.23;102359.72;4999937;28;20059;-49
2022/12/03 06:14:05;;;;;;;17.70;7.80;;;;;;;-10.25;66.38;102419.16;4970162;28;20194;-49
2022/12/03 06:16:31;;;;;;;26.15;8.90;;;;;;;-10.45;66.24;102372.97;4972720;28;20158;-49
2022/12/03 06:18:56;;;;;;;27.05;8.10;;;;;;;-10.09;66.01;102415.63;4984796;28;20150;-56
2022/12/03 06:21:23;;;;;;;24.90;7.63;;;;;;;-10.00;65.97;102419.03;4953066;28;20047;-52
2022/12/03 06:23:48;;;;;;;23.30;7.28;;;;;;;-9.92;66.30;102419.69;4969553;28;20049;-52
2022/12/03 06:26:14;;;;;;;20.92;7.50;;;;;;;-9.82;66.71;102417.25;4986332;28;20141;-48
2022/12/03 06:28:45;;;;;;;24.02;8.32;;;;;;;-9.79;66.45;102417.56;4983082;28;20050;-49
2022/12/03 06:31:11;;;;;;;34.05;9.35;;;;;;;-9.77;65.91;102416.03;4969818;28;20038;-51
2022/12/03 06:33:37;;;;;;;26.85;10.20;;;;;;;-9.71;66.45;102418.22;4968556;28;20081;-48
2022/12/03 06:36:03;;;;;;;23.63;9.35;;;;;;;-9.69;66.10;102391.56;4970328;28;20511;-48
2022/12/03 06:38:29;;;;;;;26.90;8.32;;;;;;;-9.57;66.12;102417.81;4969812;28;20110;-51
2022/12/03 06:40:55;;;;;;;30.73;9.68;;;;;;;-9.50;65.98;102412.59;4952927;28;20043;-49
2022/12/03 06:43:21;;;;;;;27.85;9.63;;;;;;;-9.46;66.27;102419.66;4981367;28;20053;-48
2022/12/03 06:45:47;;;;;;;23.27;7.82;;;;;;;-9.40;65.72;102417.69;4989741;28;20050;-52
2022/12/03 06:48:13;;;;;;;27.10;8.35;;;;;;;-9.24;65.69;102417.41;4983709;28;20102;-47
2022/12/03 06:50:39;;;;;;;30.42;8.40;;;;;;;-9.21;65.96;102405.97;4968696;28;20047;-51
2022/12/03 06:53:05;;;;;;;37.85;11.13;;;;;;;-9.08;65.24;102405.41;4982343;28;20058;-51
2022/12/03 06:55:31;;;;;;;32.00;9.57;;;;;;;-8.96;65.39;102409.03;4969875;28;20077;-48
2022/12/03 06:57:56;;;;;;;32.63;11.48;;;;;;;-8.74;65.27;102407.56;4980828;28;20613;-53
2022/12/03 07:00:22;;;;;;;27.52;9.55;;;;;;;-8.75;64.99;102367.13;4990472;28;20046;-52
2022/12/03 07:02:48;;;;;;;24.08;9.10;;;;;;;-8.47;64.21;102401.50;4982754;28;20085;-52
2022/12/03 07:05:14;;;;;;;21.95;8.80;;;;;;;-8.33;64.78;102397.63;4993508;28;20050;-52
2022/12/03 07:07:40;;;;;;;33.13;9.93;;;;;;;-8.19;64.41;102399.63;4991945;28;20050;-55
2022/12/03 07:10:06;;;;;;;33.80;9.73;;;;;;;-8.05;64.47;102401.66;4972030;28;20133;-54
2022/12/03 07:12:32;;;;;;;29.27;9.07;;;;;;;-7.93;63.98;102396.75;4977878;28;20042;-52
2022/12/03 07:14:58;;;;;;;30.88;9.93;;;;;;;-7.94;63.75;102374.78;4992598;28;20046;-51
2022/12/03 07:17:24;;;;;;;24.33;8.85;;;;;;;-7.62;63.53;102403.56;4967782;28;20084;-54
2022/12/03 07:19:50;;;;;;;28.95;9.85;;;;;;;-7.56;63.42;102383.84;4979971;28;20056;-53
2022/12/03 07:22:16;;;;;;;22.75;9.57;;;;;;;-7.43;63.11;102411.00;4992185;28;20065;-49
2022/12/03 07:24:41;;;;;;;26.85;9.55;;;;;;;-7.24;62.98;102400.72;4990238;28;20646;-49
2022/12/03 07:27:07;;;;;;;24.88;8.70;;;;;;;-7.22;62.81;102373.94;4957530;28;20077;-49
2022/12/03 07:29:33;;;;;;;23.63;8.50;;;;;;;-6.86;62.42;102400.50;4989787;28;20117;-53
2022/12/03 07:31:59;;;;;;;20.42;9.00;;;;;;;-6.87;61.63;102362.44;4992236;28;20050;-51
2022/12/03 07:34:26;;;;;;;24.30;8.60;;;;;;;-6.38;61.28;102405.03;4974723;28;20049;-48
2022/12/03 07:36:52;;;;;;;30.15;9.88;;;;;;;-6.32;61.24;102392.84;4990757;28;20062;-48
2022/12/03 07:39:17;;;;;;;23.95;9.63;;;;;;;-6.04;60.76;102399.25;4984324;28;20094;-50
2022/12/03 07:41:43;;;;;;;23.33;9.98;;;;;;;-5.82;60.39;102403.38;4977623;28;20399;-50
2022/12/03 07:44:09;;;;;;;27.42;9.57;;;;;;;-5.69;60.25;102403.50;4982639;28;20057;-51
2022/12/03 07:46:35;;;;;;;25.88;9.68;;;;;;;-5.49;60.26;102407.50;4983273;28;20112;-53
2022/12/03 07:49:02;;;;;;;31.30;9.45;;;;;;;-5.53;59.64;102408.94;4970772;28;20056;-51
2022/12/03 07:51:28;;;;;;;32.58;11.80;;;;;;;-5.39;59.97;102403.22;4991917;28;20478;-52
2022/12/03 07:53:54;;;;;;;36.95;12.75;;;;;;;-5.40;59.30;102404.00;4999092;28;20439;-54
2022/12/03 07:56:19;;;;;;;39.25;13.68;;;;;;;-5.32;59.52;102405.44;4989576;28;20054;-51
2022/12/03 07:58:45;;;;;;;35.55;15.25;;;;;;;-5.21;59.29;102396.94;4984899;28;20050;-49
2022/12/03 08:01:12;;;;;;;34.33;15.27;;;;;;;-5.05;59.16;102392.97;5007122;28;20403;-52
2022/12/03 08:03:37;;;;;;;37.38;14.63;;;;;;;-5.15;58.96;102364.44;4990644;28;20458;-50
2022/12/03 08:06:03;;;;;;;35.33;15.13;;;;;;;-4.92;58.99;102396.47;4990262;28;20046;-50
2022/12/03 08:08:29;;;;;;;45.65;15.43;;;;;;;-4.87;58.61;102395.19;4989398;28;20422;-51
2022/12/03 08:10:55;;;;;;;43.47;16.42;;;;;;;-4.87;58.22;102407.00;5005944;28;20081;-48
2022/12/03 08:13:21;;;;;;;47.20;18.13;;;;;;;-5.06;58.30;102402.25;4989165;28;20100;-51
2022/12/03 08:15:47;;;;;;;50.63;19.27;;;;;;;-4.95;58.80;102398.81;4988581;28;20045;-47
2022/12/03 08:18:18;;;;;;;49.30;19.40;;;;;;;-4.93;58.62;102399.81;4955710;28;20506;-50
2022/12/03 08:20:46;;;;;;;44.90;18.23;;;;;;;-4.84;58.56;102387.78;4986398;28;20050;-48
2022/12/03 08:23:24;;;;;;;46.20;16.02;;;;;;;-4.80;57.78;102396.47;4977431;28;20154;-53
2022/12/03 08:25:51;;;;;;;43.75;17.75;;;;;;;-4.74;58.02;102400.34;4991828;28;20057;-51
2022/12/03 08:28:18;;;;;;;38.08;15.00;;;;;;;-4.65;58.21;102387.41;4988631;28;20069;-48
2022/12/03 08:31:12;;;;;;;36.97;14.30;;;;;;;-4.48;58.33;102386.91;4989267;28;20042;-50
2022/12/03 08:33:39;;;;;;;32.10;13.02;;;;;;;-4.28;57.44;102394.25;4987170;28;20515;-49
2022/12/03 08:36:11;;;;;;;33.10;12.95;;;;;;;-4.40;58.07;102390.88;4982693;28;20076;-51
2022/12/03 08:38:40;;;;;;;28.80;10.93;;;;;;;-4.55;57.72;102386.41;4980212;28;20530;-47
2022/12/03 08:41:14;;;;;;;27.55;10.65;;;;;;;-4.47;58.07;102386.16;4989490;28;20502;-49
2022/12/03 08:43:42;;;;;;;29.25;9.95;;;;;;;-4.38;58.16;102380.81;4974220;28;20042;-49
2022/12/03 08:46:18;;;;;;;21.95;9.15;;;;;;;-4.14;57.88;102385.03;4996916;28;20038;-51
2022/12/03 08:48:45;;;;;;;24.58;9.30;;;;;;;-4.18;57.25;102346.59;4980437;28;20176;-52
2022/12/03 08:51:17;;;;;;;25.65;9.10;;;;;;;-4.10;57.04;102388.66;4975523;28;20042;-50
2022/12/03 08:53:45;;;;;;;30.42;10.38;;;;;;;-4.19;57.32;102386.41;4981856;28;20054;-47
2022/12/03 08:56:26;;;;;;;19.95;9.05;;;;;;;-3.98;57.21;102386.97;4978950;28;20145;-49
2022/12/03 08:58:57;;;;;;;28.95;9.07;;;;;;;-3.93;57.47;102388.16;4984129;28;20034;-50
2022/12/03 09:01:31;;;;;;;19.80;8.02;;;;;;;-3.91;57.19;102377.28;4970156;28;20116;-48
2022/12/03 09:04:28;;;;;;;28.50;9.93;;;;;;;-3.98;57.60;102387.81;4986703;28;20514;-47
2022/12/03 09:06:54;;;;;;;24.08;8.40;;;;;;;-4.05;57.14;102385.66;4969530;28;20051;-48
2022/12/03 09:09:21;;;;;;;23.38;10.27;;;;;;;-4.04;57.42;102394.16;4953764;28;20574;-46
2022/12/03 09:11:48;;;;;;;28.65;9.00;;;;;;;-4.13;57.79;102391.88;5000701;28;20072;-47
2022/12/03 09:14:16;;;;;;;23.48;8.95;;;;;;;-4.24;58.07;102387.75;4986063;28;20473;-49
2022/12/03 09:16:42;;;;;;;20.90;7.78;;;;;;;-4.43;58.18;102380.50;4986199;28;20042;-46
2022/12/03 09:19:08;;;;;;;22.88;9.40;;;;;;;-4.64;58.69;102363.78;4985028;28;20105;-51
2022/12/03 09:21:34;;;;;;;26.75;8.90;;;;;;;-4.77;59.02;102343.41;4952373;28;20046;-48
2022/12/03 09:24:00;;;;;;;28.05;9.07;;;;;;;-4.52;59.46;102379.00;5002853;28;20065;-48
2022/12/03 09:26:27;;;;;;;27.00;9.60;;;;;;;-4.83;59.32;102341.34;4987144;28;20050;-49
2022/12/03 09:28:53;;;;;;;23.80;9.73;;;;;;;-4.51;59.51;102384.19;4984392;28;20046;-49
2022/12/03 09:31:19;;;;;;;25.33;9.52;;;;;;;-4.41;59.18;102386.59;4973704;28;20133;-48
2022/12/03 09:33:45;;;;;;;22.42;8.80;;;;;;;-4.79;59.96;102345.84;4975944;28;20066;-48
2022/12/03 09:36:11;;;;;;;24.55;9.00;;;;;;;-4.47;59.57;102380.19;4995556;28;20982;-49
2022/12/03 09:38:36;;;;;;;21.70;8.82;;;;;;;-4.55;60.45;102333.94;4978008;28;20046;-49
2022/12/03 09:41:02;;;;;;;26.95;10.02;;;;;;;-4.31;60.51;102366.13;4987692;28;20042;-50
2022/12/03 09:43:31;;;;;;;28.35;9.88;;;;;;;-4.69;60.38;102306.75;4972205;28;20038;-46
2022/12/03 09:45:57;;;;;;;28.98;9.75;;;;;;;-4.25;60.33;102370.72;4992001;28;20043;-49
2022/12/03 09:48:23;;;;;;;23.55;8.88;;;;;;;-4.36;60.40;102348.81;4976685;28;20042;-54
2022/12/03 09:50:49;;;;;;;19.05;8.98;;;;;;;-4.35;60.46;102374.31;4981960;28;20053;-46
2022/12/03 09:53:18;;;;;;;30.67;9.43;;;;;;;-4.46;60.99;102380.31;4989853;28;20077;-47
2022/12/03 09:55:45;;;;;;;24.03;9.23;;;;;;;-4.41;60.86;102386.59;4983764;28;20042;-52
2022/12/03 09:58:13;;;;;;;31.23;9.85;;;;;;;-4.54;60.98;102370.38;4974298;28;20042;-49
2022/12/03 10:00:41;;;;;;;24.95;8.95;;;;;;;-4.55;61.25;102372.03;4969088;28;20101;-52
2022/12/03 10:03:07;;;;;;;26.42;9.10;;;;;;;-4.54;61.39;102370.38;4981320;28;20042;-48
2022/12/03 10:05:33;;;;;;;22.65;7.97;;;;;;;-4.71;61.47;102366.69;4969243;28;20045;-50
2022/12/03 10:08:06;;;;;;;24.60;9.45;;;;;;;-4.76;62.21;102380.69;4977597;28;20069;-50
2022/12/03 10:10:32;;;;;;;27.27;9.23;;;;;;;-4.85;62.35;102372.44;4971852;28;20522;-48
2022/12/03 10:12:58;;;;;;;29.17;9.27;;;;;;;-4.74;62.32;102377.50;4979734;28;20121;-52
2022/12/03 10:15:24;;;;;;;26.73;9.90;;;;;;;-4.70;62.75;102364.25;4977257;28;20074;-50
2022/12/03 10:17:52;;;;;;;23.75;8.73;;;;;;;-4.61;62.12;102368.22;4974399;28;20074;-47
2022/12/03 10:20:19;;;;;;;27.75;9.65;;;;;;;-4.62;62.42;102376.59;4986023;28;20051;-48
2022/12/03 10:22:47;;;;;;;24.25;8.40;;;;;;;-4.63;62.58;102367.22;4984931;28;20049;-51
2022/12/03 10:25:16;;;;;;;22.20;8.18;;;;;;;-4.59;62.29;102367.53;4980604;28;20066;-50
2022/12/03 10:27:42;;;;;;;26.70;8.70;;;;;;;-4.74;62.48;102344.50;4976108;28;20054;-48
2022/12/03 10:30:18;;;;;;;21.27;8.70;;;;;;;-4.83;62.75;102343.88;4985465;28;20046;-47
2022/12/03 10:32:47;;;;;;;27.55;9.10;;;;;;;-4.68;63.07;102371.09;4985570;28;20046;-49
2022/12/03 10:35:18;;;;;;;31.75;9.40;;;;;;;-4.79;62.88;102381.38;4971179;28;20043;-48
2022/12/03 10:38:08;;;;;;;23.30;9.13;;;;;;;-4.76;63.57;102380.69;4997571;28;20042;-48
2022/12/03 10:40:36;;;;;;;25.30;9.85;;;;;;;-4.68;62.98;102374.50;5000720;28;20145;-48
2022/12/03 10:43:22;;;;;;;26.90;9.32;;;;;;;-4.61;62.64;102369.09;4972078;28;20159;-50
2022/12/03 10:45:55;;;;;;;19.75;8.30;;;;;;;-4.67;63.28;102378.81;4982882;28;20043;-51
2022/12/03 10:48:26;;;;;;;29.02;8.77;;;;;;;-4.82;63.46;102378.63;4993566;28;20092;-48
2022/12/03 10:51:03;;;;;;;24.13;8.73;;;;;;;-4.78;63.17;102380.59;4987685;28;20030;-46
2022/12/03 10:53:30;;;;;;;21.50;7.75;;;;;;;-4.90;63.44;102373.75;4980293;28;20065;-47
2022/12/03 10:56:02;;;;;;;23.23;9.80;;;;;;;-4.98;63.13;102370.72;4987208;28;20046;-47
2022/12/03 10:58:30;;;;;;;23.35;8.07;;;;;;;-4.97;63.96;102380.06;4984601;28;20514;-49
2022/12/03 11:00:59;;;;;;;25.60;8.63;;;;;;;-4.94;63.88;102377.75;4978964;28;20201;-48
2022/12/03 11:03:29;;;;;;;26.30;9.23;;;;;;;-5.03;64.39;102372.03;4973823;28;20523;-49
2022/12/03 11:05:56;;;;;;;24.73;10.07;;;;;;;-4.97;63.89;102381.75;4984763;28;20054;-47
2022/12/03 11:08:25;;;;;;;26.83;8.93;;;;;;;-5.11;64.08;102370.59;4984569;28;20077;-50
2022/12/03 11:10:57;;;;;;;;;;;;;;;-5.08;64.64;102380.09;4990592;28;20430;-53
2022/12/03 11:13:29;;;;;;;19.17;8.55;;;;;;;-5.06;64.44;102381.94;4991545;28;19925;-50
2022/12/03 11:15:55;;;;;;;25.30;8.90;;;;;;;-5.02;64.50;102370.38;4991132;28;20044;-50
2022/12/03 11:18:35;;;;;;;24.60;9.15;;;;;;;-4.94;64.42;102387.91;4985952;28;20042;-48
2022/12/03 11:21:10;;;;;;;25.10;9.10;;;;;;;-4.97;64.77;102377.53;4977840;28;20133;-47
2022/12/03 11:23:45;;;;;;;26.10;9.02;;;;;;;-5.01;65.24;102377.19;4975186;28;20112;-53
2022/12/03 11:26:14;;;;;;;32.25;9.38;;;;;;;-5.07;64.61;102376.75;4982256;28;20510;-52
2022/12/03 11:28:46;;;;;;;;;;;;;;;-5.02;64.42;102373.78;4986225;28;20422;-48
2022/12/03 11:31:35;;;;;;;19.50;8.35;;;;;;;-5.20;65.37;102353.06;4999375;28;19990;-51
2022/12/03 11:34:19;;;;;;;25.08;8.43;;;;;;;-5.18;65.02;102376.88;4978755;28;20068;-49
2022/12/03 11:37:09;;;;;;;20.98;8.55;;;;;;;-5.17;65.15;102381.19;4984194;28;20046;-48